Maryville, TN (37803)

11:35 AM EST on December 07, 2016 (GMT -0500)
Allenbrook | | Change Station

Elev 1040 ft 35.70 °N, 83.99 °W | Updated 4 minutes ago

Scattered Clouds
Scattered Clouds
47.9 °F
Feels Like 46 °F
N
4.0
Wind Variable Wind from North
Gusts 4.0 mph

Today
High -- | Low -- °F
--% Chance of Precip.
Yesterday
High -- | Low -- °F
Precip. -- in
Pressure 30.09 in
Visibility 10.0 miles
Clouds Few 2700 ft
Scattered Clouds 25000 ft
Windchill 46 °F
Dew Point 41 °F
Humidity 76%
Rainfall 0.00 in
Snow Depth Not available.
7:32 AM 5:22 PM
First Quarter, 54% visible
METAR KTYS 071553Z 03008KT 10SM FEW027 SCT250 09/03 A3009 RMK AO2 SLP187 T00940033
Pressure 30.09 in
Visibility 10.0 miles
Clouds Few 2700 ft
Scattered Clouds 25000 ft
Windchill 46 °F
Dew Point 41 °F
Humidity 76%
Rainfall 0.00 in
Snow Depth Not available.
7:32 AM 5:22 PM
First Quarter, 54% visible
METAR KTYS 071553Z 03008KT 10SM FEW027 SCT250 09/03 A3009 RMK AO2 SLP187 T00940033

10-Day Weather Forecast

Almanac

Astronomy

Dec. 07, 2016 Rise Set
Actual Time
Civil Twilight
Nautical Twilight
Astronomical Twilight
Moon
Length of Visible Light
Length of Day
Tomorrow will be .
, % of the Moon is Illuminated

Today's Extremes

State Highs State Lows

Community

WunderPhotos

Upload Photos

1,956,124 photos uploaded!

WunderBlog® & News

Nearby

Air Quality

  Air Quality AQ Index Pollutant
Not available.

Snow Depth

Station Depth Elevation

Earthquake Activity

City Distance Mag. Time & Date
Minimum magnitude displayed is 2.5.

Coastal Water Temperatures

Place Temperature

Stations

Nearby Weather Stations

Station Location Temp. Windchill Dew Point Humidity Wind Precip. Elev Updated Type
                   

Watches & Warnings

There are currently no watches in effect.